sensor_id;sensor_type;location;lat;lon;timestamp;pressure;altitude;pressure_sealevel;temperature;humidity
38939;BME280;24211;49.980;19.776;2023-12-20T00:02:57;98856.38;;;5.28;100.00
38939;BME280;24211;49.980;19.776;2023-12-20T00:05:25;98856.81;;;5.25;100.00
38939;BME280;24211;49.980;19.776;2023-12-20T00:07:53;98849.84;;;5.24;100.00
38939;BME280;24211;49.980;19.776;2023-12-20T00:10:21;98846.59;;;5.22;100.00
38939;BME280;24211;49.980;19.776;2023-12-20T00:12:48;98838.44;;;5.17;100.00
38939;BME280;24211;49.980;19.776;2023-12-20T00:15:41;98833.53;;;5.14;100.00
38939;BME280;24211;49.980;19.776;2023-12-20T00:21:30;98829.47;;;5.12;100.00
38939;BME280;24211;49.980;19.776;2023-12-20T00:23:57;98819.25;;;5.09;100.00
38939;BME280;24211;49.980;19.776;2023-12-20T00:26:25;98820.47;;;5.06;100.00
38939;BME280;24211;49.980;19.776;2023-12-20T00:28:52;98808.28;;;5.05;100.00
38939;BME280;24211;49.980;19.776;2023-12-20T00:31:45;98805.41;;;5.00;100.00
38939;BME280;24211;49.980;19.776;2023-12-20T00:34:12;98802.94;;;4.99;100.00
38939;BME280;24211;49.980;19.776;2023-12-20T00:37:05;98807.84;;;4.95;100.00
38939;BME280;24211;49.980;19.776;2023-12-20T00:39:45;98797.25;;;4.95;100.00
38939;BME280;24211;49.980;19.776;2023-12-20T00:42:12;98802.56;;;4.95;100.00
38939;BME280;24211;49.980;19.776;2023-12-20T00:44:39;98800.31;;;4.92;100.00
38939;BME280;24211;49.980;19.776;2023-12-20T00:47:07;98799.69;;;4.90;100.00
38939;BME280;24211;49.980;19.776;2023-12-20T00:49:34;98805.81;;;4.91;100.00
38939;BME280;24211;49.980;19.776;2023-12-20T00:52:05;98804.97;;;4.90;100.00
38939;BME280;24211;49.980;19.776;2023-12-20T00:54:32;98796.03;;;4.91;100.00
38939;BME280;24211;49.980;19.776;2023-12-20T00:57:00;98797.66;;;4.92;100.00
38939;BME280;24211;49.980;19.776;2023-12-20T00:59:27;98803.34;;;4.89;100.00
38939;BME280;24211;49.980;19.776;2023-12-20T01:01:54;98789.31;;;4.89;100.00
38939;BME280;24211;49.980;19.776;2023-12-20T01:04:50;98790.72;;;4.85;100.00
38939;BME280;24211;49.980;19.776;2023-12-20T01:07:21;98793.97;;;4.87;100.00
38939;BME280;24211;49.980;19.776;2023-12-20T01:09:52;98794.78;;;4.87;100.00
38939;BME280;24211;49.980;19.776;2023-12-20T01:12:36;98792.34;;;4.86;100.00
38939;BME280;24211;49.980;19.776;2023-12-20T01:15:05;98785.41;;;4.85;100.00
38939;BME280;24211;49.980;19.776;2023-12-20T01:17:32;98788.28;;;4.83;100.00
38939;BME280;24211;49.980;19.776;2023-12-20T01:19:59;98786.63;;;4.82;100.00
38939;BME280;24211;49.980;19.776;2023-12-20T01:22:27;98774.44;;;4.81;100.00
38939;BME280;24211;49.980;19.776;2023-12-20T01:24:54;98768.94;;;4.83;100.00
38939;BME280;24211;49.980;19.776;2023-12-20T01:27:21;98767.09;;;4.83;100.00
38939;BME280;24211;49.980;19.776;2023-12-20T01:29:52;98767.50;;;4.80;100.00
38939;BME280;24211;49.980;19.776;2023-12-20T01:32:20;98757.72;;;4.81;100.00
38939;BME280;24211;49.980;19.776;2023-12-20T01:38:47;98729.81;;;4.78;100.00
38939;BME280;24211;49.980;19.776;2023-12-20T01:41:14;98727.19;;;4.78;100.00
38939;BME280;24211;49.980;19.776;2023-12-20T01:43:42;98725.16;;;4.74;100.00
38939;BME280;24211;49.980;19.776;2023-12-20T01:46:33;98720.66;;;4.74;100.00
38939;BME280;24211;49.980;19.776;2023-12-20T01:49:29;98717.38;;;4.72;100.00
38939;BME280;24211;49.980;19.776;2023-12-20T01:52:42;98715.16;;;4.69;100.00
38939;BME280;24211;49.980;19.776;2023-12-20T01:55:10;98711.28;;;4.65;100.00
38939;BME280;24211;49.980;19.776;2023-12-20T01:58:48;98706.97;;;4.57;100.00
38939;BME280;24211;49.980;19.776;2023-12-20T02:01:16;98703.94;;;4.54;100.00
38939;BME280;24211;49.980;19.776;2023-12-20T02:03:44;98706.38;;;4.49;100.00
38939;BME280;24211;49.980;19.776;2023-12-20T02:06:52;98710.03;;;4.48;100.00
38939;BME280;24211;49.980;19.776;2023-12-20T02:09:20;98707.97;;;4.50;100.00
38939;BME280;24211;49.980;19.776;2023-12-20T02:11:48;98703.13;;;4.47;100.00
38939;BME280;24211;49.980;19.776;2023-12-20T02:14:16;98699.03;;;4.44;100.00
38939;BME280;24211;49.980;19.776;2023-12-20T02:16:44;98694.97;;;4.42;100.00
38939;BME280;24211;49.980;19.776;2023-12-20T02:19:17;98685.16;;;4.36;100.00
38939;BME280;24211;49.980;19.776;2023-12-20T02:21:44;98686.81;;;4.37;100.00
38939;BME280;24211;49.980;19.776;2023-12-20T02:24:24;98664.81;;;4.30;100.00
38939;BME280;24211;49.980;19.776;2023-12-20T02:26:51;98664.81;;;4.30;100.00
38939;BME280;24211;49.980;19.776;2023-12-20T02:29:59;98666.44;;;4.31;100.00
38939;BME280;24211;49.980;19.776;2023-12-20T02:32:27;98669.69;;;4.33;100.00
38939;BME280;24211;49.980;19.776;2023-12-20T02:34:55;98670.06;;;4.23;100.00
38939;BME280;24211;49.980;19.776;2023-12-20T02:37:27;98666.03;;;4.27;100.00
38939;BME280;24211;49.980;19.776;2023-12-20T02:39:55;98662.13;;;4.17;100.00
38939;BME280;24211;49.980;19.776;2023-12-20T02:42:22;98660.28;;;4.11;100.00
38939;BME280;24211;49.980;19.776;2023-12-20T02:48:07;98654.59;;;4.14;100.00
38939;BME280;24211;49.980;19.776;2023-12-20T02:50:35;98664.16;;;4.15;100.00
38939;BME280;24211;49.980;19.776;2023-12-20T02:56:45;98676.78;;;4.13;100.00
38939;BME280;24211;49.980;19.776;2023-12-20T02:59:37;98680.00;;;4.08;100.00
38939;BME280;24211;49.980;19.776;2023-12-20T03:02:04;98673.69;;;4.03;100.00
38939;BME280;24211;49.980;19.776;2023-12-20T03:05:00;98684.66;;;4.00;100.00
38939;BME280;24211;49.980;19.776;2023-12-20T03:07:28;98679.75;;;3.96;100.00
38939;BME280;24211;49.980;19.776;2023-12-20T03:09:56;98681.41;;;3.97;100.00
38939;BME280;24211;49.980;19.776;2023-12-20T03:13:09;98671.22;;;3.94;100.00
38939;BME280;24211;49.980;19.776;2023-12-20T03:15:36;98676.50;;;3.94;100.00
38939;BME280;24211;49.980;19.776;2023-12-20T03:18:43;98667.16;;;3.92;100.00
38939;BME280;24211;49.980;19.776;2023-12-20T03:21:10;98675.28;;;3.90;100.00
38939;BME280;24211;49.980;19.776;2023-12-20T03:23:38;98671.59;;;3.91;100.00
38939;BME280;24211;49.980;19.776;2023-12-20T03:26:36;98671.59;;;3.91;100.00
38939;BME280;24211;49.980;19.776;2023-12-20T03:29:03;98673.25;;;3.92;100.00
38939;BME280;24211;49.980;19.776;2023-12-20T03:31:31;98675.28;;;3.90;100.00
38939;BME280;24211;49.980;19.776;2023-12-20T03:34:01;98677.72;;;3.92;100.00
38939;BME280;24211;49.980;19.776;2023-12-20T03:36:29;98672.88;;;3.95;100.00
38939;BME280;24211;49.980;19.776;2023-12-20T03:39:14;98675.69;;;4.01;100.00
38939;BME280;24211;49.980;19.776;2023-12-20T03:42:01;98675.31;;;4.04;100.00
38939;BME280;24211;49.980;19.776;2023-12-20T03:44:28;98679.78;;;4.03;100.00
38939;BME280;24211;49.980;19.776;2023-12-20T03:46:55;98683.84;;;4.06;100.00
38939;BME280;24211;49.980;19.776;2023-12-20T03:49:48;98679.81;;;4.10;100.00
38939;BME280;24211;49.980;19.776;2023-12-20T03:52:16;98684.72;;;4.13;100.00
38939;BME280;24211;49.980;19.776;2023-12-20T03:54:44;98688.16;;;4.13;100.00
38939;BME280;24211;49.980;19.776;2023-12-20T03:57:36;98686.94;;;4.16;100.00
38939;BME280;24211;49.980;19.776;2023-12-20T04:00:29;98676.97;;;4.18;100.00
38939;BME280;24211;49.980;19.776;2023-12-20T04:02:56;98680.25;;;4.20;100.00
38939;BME280;24211;49.980;19.776;2023-12-20T04:05:44;98669.25;;;4.23;100.00
38939;BME280;24211;49.980;19.776;2023-12-20T04:08:12;98666.03;;;4.27;100.00
38939;BME280;24211;49.980;19.776;2023-12-20T04:10:39;98668.09;;;4.32;100.00
38939;BME280;24211;49.980;19.776;2023-12-20T04:13:21;98672.16;;;4.34;100.00
38939;BME280;24211;49.980;19.776;2023-12-20T04:15:57;98663.63;;;4.39;100.00
38939;BME280;24211;49.980;19.776;2023-12-20T04:18:50;98657.94;;;4.42;100.00
38939;BME280;24211;49.980;19.776;2023-12-20T04:21:43;98652.63;;;4.42;100.00
38939;BME280;24211;49.980;19.776;2023-12-20T04:24:10;98660.34;;;4.43;100.00
38939;BME280;24211;49.980;19.776;2023-12-20T04:26:38;98665.25;;;4.46;100.00
38939;BME280;24211;49.980;19.776;2023-12-20T04:29:05;98658.75;;;4.49;100.00
38939;BME280;24211;49.980;19.776;2023-12-20T04:34:51;98668.50;;;4.55;100.00
38939;BME280;24211;49.980;19.776;2023-12-20T04:37:18;98671.75;;;4.57;100.00
38939;BME280;24211;49.980;19.776;2023-12-20T04:39:49;98673.19;;;4.59;100.00
38939;BME280;24211;49.980;19.776;2023-12-20T04:42:21;98675.44;;;4.62;100.00
38939;BME280;24211;49.980;19.776;2023-12-20T04:44:48;98678.69;;;4.64;100.00
38939;BME280;24211;49.980;19.776;2023-12-20T04:47:16;98684.63;;;4.67;100.00
38939;BME280;24211;49.980;19.776;2023-12-20T04:50:08;98697.44;;;4.70;100.00
38939;BME280;24211;49.980;19.776;2023-12-20T04:52:37;98693.56;;;4.72;100.00
38939;BME280;24211;49.980;19.776;2023-12-20T04:55:43;98696.63;;;4.76;100.00
38939;BME280;24211;49.980;19.776;2023-12-20T04:58:11;98695.41;;;4.78;100.00
38939;BME280;24211;49.980;19.776;2023-12-20T05:00:38;98688.09;;;4.80;100.00
38939;BME280;24211;49.980;19.776;2023-12-20T05:03:06;98688.69;;;4.82;100.00
38939;BME280;24211;49.980;19.776;2023-12-20T05:05:33;98686.84;;;4.83;100.00
38939;BME280;24211;49.980;19.776;2023-12-20T05:08:02;98678.69;;;4.84;100.00
38939;BME280;24211;49.980;19.776;2023-12-20T05:10:56;98677.09;;;4.83;100.00
38939;BME280;24211;49.980;19.776;2023-12-20T05:13:24;98673.41;;;4.84;100.00
38939;BME280;24211;49.980;19.776;2023-12-20T05:16:37;98668.75;;;4.86;100.00
38939;BME280;24211;49.980;19.776;2023-12-20T05:19:05;98678.31;;;4.87;100.00
38939;BME280;24211;49.980;19.776;2023-12-20T05:21:34;98678.31;;;4.87;100.00
38939;BME280;24211;49.980;19.776;2023-12-20T05:24:05;98668.75;;;4.86;100.00
38939;BME280;24211;49.980;19.776;2023-12-20T05:26:58;98671.41;;;4.86;100.00
38939;BME280;24211;49.980;19.776;2023-12-20T05:29:40;98671.41;;;4.86;100.00
38939;BME280;24211;49.980;19.776;2023-12-20T05:32:33;98671.78;;;4.83;100.00
38939;BME280;24211;49.980;19.776;2023-12-20T05:35:26;98664.88;;;4.82;100.00
38939;BME280;24211;49.980;19.776;2023-12-20T05:38:19;98661.59;;;4.80;100.00
38939;BME280;24211;49.980;19.776;2023-12-20T05:44:04;98662.00;;;4.77;100.00
38939;BME280;24211;49.980;19.776;2023-12-20T05:46:33;98662.44;;;4.74;100.00
38939;BME280;24211;49.980;19.776;2023-12-20T05:49:02;98660.41;;;4.76;100.00
38939;BME280;24211;49.980;19.776;2023-12-20T05:51:33;98658.34;;;4.78;100.00
38939;BME280;24211;49.980;19.776;2023-12-20T05:54:04;98665.25;;;4.79;100.00
38939;BME280;24211;49.980;19.776;2023-12-20T05:56:32;98658.34;;;4.78;100.00
38939;BME280;24211;49.980;19.776;2023-12-20T05:59:00;98674.03;;;4.80;100.00
38939;BME280;24211;49.980;19.776;2023-12-20T06:01:55;98668.53;;;4.81;100.00
38939;BME280;24211;49.980;19.776;2023-12-20T06:04:22;98679.13;;;4.81;100.00
38939;BME280;24211;49.980;19.776;2023-12-20T06:10:36;98662.44;;;4.81;100.00
38939;BME280;24211;49.980;19.776;2023-12-20T06:13:04;98676.47;;;4.81;100.00
38939;BME280;24211;49.980;19.776;2023-12-20T06:15:34;98675.44;;;4.82;100.00
38939;BME280;24211;49.980;19.776;2023-12-20T06:18:41;98676.28;;;4.83;100.00
38939;BME280;24211;49.980;19.776;2023-12-20T06:21:10;98679.91;;;4.82;100.00
38939;BME280;24211;49.980;19.776;2023-12-20T06:23:40;98684.44;;;4.81;100.00
38939;BME280;24211;49.980;19.776;2023-12-20T06:26:33;98686.03;;;4.82;100.00
38939;BME280;24211;49.980;19.776;2023-12-20T06:29:00;98693.78;;;4.84;100.00
38939;BME280;24211;49.980;19.776;2023-12-20T06:31:27;98698.28;;;4.83;100.00
38939;BME280;24211;49.980;19.776;2023-12-20T06:33:55;98697.22;;;4.84;100.00
38939;BME280;24211;49.980;19.776;2023-12-20T06:36:26;98698.28;;;4.83;100.00
38939;BME280;24211;49.980;19.776;2023-12-20T06:39:01;98690.31;;;4.83;100.00
38939;BME280;24211;49.980;19.776;2023-12-20T06:42:58;98696.63;;;4.82;100.00
38939;BME280;24211;49.980;19.776;2023-12-20T06:45:40;98695.00;;;4.81;100.00
38939;BME280;24211;49.980;19.776;2023-12-20T06:51:32;98694.19;;;4.81;100.00
38939;BME280;24211;49.980;19.776;2023-12-20T06:54:25;98689.72;;;4.81;100.00
38939;BME280;24211;49.980;19.776;2023-12-20T06:56:53;98695.41;;;4.78;100.00
38939;BME280;24211;49.980;19.776;2023-12-20T06:59:45;98693.38;;;4.80;100.00
38939;BME280;24211;49.980;19.776;2023-12-20T07:02:38;98699.28;;;4.82;100.00
38939;BME280;24211;49.980;19.776;2023-12-20T07:05:06;98698.88;;;4.85;100.00
38939;BME280;24211;49.980;19.776;2023-12-20T07:07:34;98701.53;;;4.85;100.00
38939;BME280;24211;49.980;19.776;2023-12-20T07:10:02;98702.34;;;4.86;100.00
38939;BME280;24211;49.980;19.776;2023-12-20T07:12:33;98699.47;;;4.87;100.00
38939;BME280;24211;49.980;19.776;2023-12-20T07:22:13;98721.28;;;4.89;100.00
38939;BME280;24211;49.980;19.776;2023-12-20T07:24:40;98728.00;;;4.92;100.00
38939;BME280;24211;49.980;19.776;2023-12-20T07:27:35;98718.41;;;4.84;100.00
38939;BME280;24211;49.980;19.776;2023-12-20T07:30:03;98727.56;;;4.82;100.00
38939;BME280;24211;49.980;19.776;2023-12-20T07:32:30;98723.09;;;4.82;100.00
38939;BME280;24211;49.980;19.776;2023-12-20T07:34:59;98722.69;;;4.85;100.00
38939;BME280;24211;49.980;19.776;2023-12-20T07:37:27;98724.94;;;4.88;100.00
38939;BME280;24211;49.980;19.776;2023-12-20T07:39:54;98733.72;;;4.89;100.00
38939;BME280;24211;49.980;19.776;2023-12-20T07:46:06;98740.63;;;4.90;100.00
38939;BME280;24211;49.980;19.776;2023-12-20T07:48:38;98738.41;;;4.93;100.00
38939;BME280;24211;49.980;19.776;2023-12-20T07:51:08;98738.41;;;4.93;100.00
38939;BME280;24211;49.980;19.776;2023-12-20T07:54:01;98742.66;;;4.94;100.00
38939;BME280;24211;49.980;19.776;2023-12-20T07:56:55;98745.91;;;4.96;100.00
38939;BME280;24211;49.980;19.776;2023-12-20T07:59:22;98752.03;;;4.97;100.00
38939;BME280;24211;49.980;19.776;2023-12-20T08:01:59;98750.81;;;4.99;100.00
38939;BME280;24211;49.980;19.776;2023-12-20T08:08:24;98732.88;;;5.01;100.00
38939;BME280;24211;49.980;19.776;2023-12-20T08:10:51;98733.53;;;5.03;100.00
38939;BME280;24211;49.980;19.776;2023-12-20T08:13:18;98734.53;;;5.02;100.00
38939;BME280;24211;49.980;19.776;2023-12-20T08:16:04;98733.69;;;5.02;100.00
38939;BME280;24211;49.980;19.776;2023-12-20T08:18:32;98733.09;;;5.06;100.00
38939;BME280;24211;49.980;19.776;2023-12-20T08:21:00;98738.19;;;5.08;100.00
38939;BME280;24211;49.980;19.776;2023-12-20T08:23:32;98739.41;;;5.05;100.00
38939;BME280;24211;49.980;19.776;2023-12-20T08:26:06;98739.81;;;5.02;100.00
38939;BME280;24211;49.980;19.776;2023-12-20T08:28:59;98739.41;;;5.05;100.00
38939;BME280;24211;49.980;19.776;2023-12-20T08:31:41;98742.25;;;5.04;100.00
38939;BME280;24211;49.980;19.776;2023-12-20T08:34:08;98743.47;;;5.01;100.00
38939;BME280;24211;49.980;19.776;2023-12-20T08:36:38;98746.31;;;5.06;100.00
38939;BME280;24211;49.980;19.776;2023-12-20T08:39:31;98744.28;;;5.02;100.00
38939;BME280;24211;49.980;19.776;2023-12-20T08:42:00;98743.47;;;5.01;100.00
38939;BME280;24211;49.980;19.776;2023-12-20T08:44:27;98744.91;;;4.97;100.00
38939;BME280;24211;49.980;19.776;2023-12-20T08:47:19;98747.16;;;5.00;100.00
38939;BME280;24211;49.980;19.776;2023-12-20T08:49:52;98743.47;;;5.01;100.00
38939;BME280;24211;49.980;19.776;2023-12-20T08:52:33;98748.78;;;5.01;100.00
38939;BME280;24211;49.980;19.776;2023-12-20T08:55:01;98745.94;;;5.03;100.00
38939;BME280;24211;49.980;19.776;2023-12-20T08:57:28;98748.78;;;5.08;100.00
38939;BME280;24211;49.980;19.776;2023-12-20T08:59:57;98754.69;;;5.10;100.00
38939;BME280;24211;49.980;19.776;2023-12-20T09:02:25;98743.88;;;5.11;100.00
38939;BME280;24211;49.980;19.776;2023-12-20T09:04:53;98739.81;;;5.09;100.00
38939;BME280;24211;49.980;19.776;2023-12-20T09:07:46;98749.63;;;5.08;100.00
38939;BME280;24211;49.980;19.776;2023-12-20T09:10:16;98752.25;;;5.08;100.00
38939;BME280;24211;49.980;19.776;2023-12-20T09:12:52;98746.31;;;5.06;100.00
38939;BME280;24211;49.980;19.776;2023-12-20T09:15:51;98744.72;;;5.05;100.00
38939;BME280;24211;49.980;19.776;2023-12-20T09:18:44;98747.16;;;5.07;100.00
38939;BME280;24211;49.980;19.776;2023-12-20T09:21:12;98742.25;;;5.04;100.00
38939;BME280;24211;49.980;19.776;2023-12-20T09:23:39;98754.72;;;5.03;100.00
38939;BME280;24211;49.980;19.776;2023-12-20T09:26:32;98750.00;;;5.05;100.00
38939;BME280;24211;49.980;19.776;2023-12-20T09:28:59;98749.63;;;5.08;100.00
38939;BME280;24211;49.980;19.776;2023-12-20T09:31:26;98737.38;;;5.07;100.00
38939;BME280;24211;49.980;19.776;2023-12-20T09:37:12;98730.44;;;5.06;100.00
38939;BME280;24211;49.980;19.776;2023-12-20T09:39:39;98728.81;;;5.05;100.00
38939;BME280;24211;49.980;19.776;2023-12-20T09:42:11;98723.91;;;5.09;100.00
38939;BME280;24211;49.980;19.776;2023-12-20T09:44:42;98723.13;;;5.08;100.00
38939;BME280;24211;49.980;19.776;2023-12-20T09:47:15;98729.03;;;5.10;100.00
38939;BME280;24211;49.980;19.776;2023-12-20T09:49:43;98726.78;;;5.14;100.00
38939;BME280;24211;49.980;19.776;2023-12-20T09:52:12;98724.13;;;5.14;100.00
38939;BME280;24211;49.980;19.776;2023-12-20T09:54:47;98716.81;;;5.16;100.00
38939;BME280;24211;49.980;19.776;2023-12-20T09:57:16;98725.34;;;5.11;100.00
38939;BME280;24211;49.980;19.776;2023-12-20T09:59:58;98711.72;;;5.14;100.00
38939;BME280;24211;49.980;19.776;2023-12-20T10:02:25;98707.44;;;5.13;100.00
38939;BME280;24211;49.980;19.776;2023-12-20T10:05:16;98713.75;;;5.12;100.00
38939;BME280;24211;49.980;19.776;2023-12-20T10:07:47;98706.81;;;5.11;100.00
38939;BME280;24211;49.980;19.776;2023-12-20T10:10:40;98707.25;;;5.08;100.00
38939;BME280;24211;49.980;19.776;2023-12-20T10:13:39;98700.69;;;5.04;100.00
38939;BME280;24211;49.980;19.776;2023-12-20T10:16:08;98714.56;;;5.00;100.00
38939;BME280;24211;49.980;19.776;2023-12-20T10:18:35;98713.34;;;5.02;100.00
38939;BME280;24211;49.980;19.776;2023-12-20T10:21:19;98699.50;;;5.00;100.00
38939;BME280;24211;49.980;19.776;2023-12-20T10:23:48;98699.06;;;4.97;100.00
38939;BME280;24211;49.980;19.776;2023-12-20T10:26:25;98698.06;;;4.91;100.00
38939;BME280;24211;49.980;19.776;2023-12-20T10:29:20;98707.22;;;4.95;100.00
38939;BME280;24211;49.980;19.776;2023-12-20T10:32:28;98704.59;;;4.95;100.00
38939;BME280;24211;49.980;19.776;2023-12-20T10:35:17;98706.41;;;5.01;100.00
38939;BME280;24211;49.980;19.776;2023-12-20T10:37:47;98697.44;;;5.02;100.00
38939;BME280;24211;49.980;19.776;2023-12-20T10:40:40;98702.75;;;5.02;100.00
38939;BME280;24211;49.980;19.776;2023-12-20T10:46:24;98695.00;;;5.07;100.00
38939;BME280;24211;49.980;19.776;2023-12-20T10:50:27;98701.13;;;5.08;100.00
38939;BME280;24211;49.980;19.776;2023-12-20T10:52:58;98695.00;;;5.07;100.00
38939;BME280;24211;49.980;19.776;2023-12-20T10:55:27;98682.38;;;4.96;100.00
38939;BME280;24211;49.980;19.776;2023-12-20T10:58:08;98683.00;;;4.98;100.00
38939;BME280;24211;49.980;19.776;2023-12-20T11:07:56;98689.72;;;5.07;100.00
38939;BME280;24211;49.980;19.776;2023-12-20T11:14:49;98684.41;;;5.07;100.00
38939;BME280;24211;49.980;19.776;2023-12-20T11:17:17;98692.97;;;5.09;100.00
38939;BME280;24211;49.980;19.776;2023-12-20T11:23:04;98686.47;;;5.05;100.00
38939;BME280;24211;49.980;19.776;2023-12-20T11:29:40;98696.22;;;5.11;100.00
38939;BME280;24211;49.980;19.776;2023-12-20T11:32:33;98690.91;;;5.11;100.00
38939;BME280;24211;49.980;19.776;2023-12-20T11:35:24;98690.91;;;5.11;100.00
38939;BME280;24211;49.980;19.776;2023-12-20T11:38:01;98688.91;;;5.13;100.00
38939;BME280;24211;49.980;19.776;2023-12-20T11:40:33;98690.13;;;5.17;100.00
38939;BME280;24211;49.980;19.776;2023-12-20T11:43:04;98690.50;;;5.14;100.00
38939;BME280;24211;49.980;19.776;2023-12-20T11:45:33;98686.44;;;5.12;100.00
38939;BME280;24211;49.980;19.776;2023-12-20T11:48:05;98676.66;;;5.12;100.00
38939;BME280;24211;49.980;19.776;2023-12-20T11:50:34;98688.72;;;5.08;100.00
38939;BME280;24211;49.980;19.776;2023-12-20T11:53:01;98684.00;;;5.10;100.00
38939;BME280;24211;49.980;19.776;2023-12-20T11:55:28;98689.09;;;5.05;100.00
38939;BME280;24211;49.980;19.776;2023-12-20T11:58:23;98678.72;;;5.10;100.00
38939;BME280;24211;49.980;19.776;2023-12-20T12:01:16;98677.50;;;5.13;100.00
38939;BME280;24211;49.980;19.776;2023-12-20T12:03:45;98687.25;;;5.12;100.00
38939;BME280;24211;49.980;19.776;2023-12-20T12:06:16;98688.09;;;5.13;100.00
38939;BME280;24211;49.980;19.776;2023-12-20T12:08:43;98680.75;;;5.15;100.00
38939;BME280;24211;49.980;19.776;2023-12-20T12:11:10;98677.88;;;5.16;100.00
38939;BME280;24211;49.980;19.776;2023-12-20T12:14:02;98678.31;;;5.13;100.00
38939;BME280;24211;49.980;19.776;2023-12-20T12:16:30;98675.03;;;5.18;100.00
38939;BME280;24211;49.980;19.776;2023-12-20T12:19:24;98678.69;;;5.17;100.00
38939;BME280;24211;49.980;19.776;2023-12-20T12:22:06;98679.53;;;5.17;100.00
38939;BME280;24211;49.980;19.776;2023-12-20T12:24:38;98668.94;;;5.17;100.00
38939;BME280;24211;49.980;19.776;2023-12-20T12:27:07;98673.41;;;5.17;100.00
38939;BME280;24211;49.980;19.776;2023-12-20T12:29:35;98668.53;;;5.20;100.00
38939;BME280;24211;49.980;19.776;2023-12-20T12:32:07;98660.34;;;5.22;100.00
38939;BME280;24211;49.980;19.776;2023-12-20T12:35:00;98661.19;;;5.22;100.00
38939;BME280;24211;49.980;19.776;2023-12-20T12:37:30;98661.19;;;5.22;100.00
38939;BME280;24211;49.980;19.776;2023-12-20T12:39:57;98664.84;;;5.21;100.00
38939;BME280;24211;49.980;19.776;2023-12-20T12:45:44;98673.00;;;5.13;100.00
38939;BME280;24211;49.980;19.776;2023-12-20T12:48:26;98676.44;;;5.14;100.00
38939;BME280;24211;49.980;19.776;2023-12-20T12:50:56;98674.22;;;5.17;100.00
38939;BME280;24211;49.980;19.776;2023-12-20T12:53:27;98673.19;;;5.18;100.00
38939;BME280;24211;49.980;19.776;2023-12-20T12:55:54;98678.47;;;5.18;100.00
38939;BME280;24211;49.980;19.776;2023-12-20T12:58:47;98681.13;;;5.18;100.00
38939;BME280;24211;49.980;19.776;2023-12-20T13:04:32;98673.38;;;5.23;100.00
38939;BME280;24211;49.980;19.776;2023-12-20T13:07:00;98671.38;;;5.25;100.00
38939;BME280;24211;49.980;19.776;2023-12-20T13:09:28;98671.38;;;5.25;100.00
38939;BME280;24211;49.980;19.776;2023-12-20T13:11:55;98675.03;;;5.24;100.00
38939;BME280;24211;49.980;19.776;2023-12-20T13:14:48;98676.66;;;5.25;100.00
38939;BME280;24211;49.980;19.776;2023-12-20T13:17:16;98669.31;;;5.27;100.00
38939;BME280;24211;49.980;19.776;2023-12-20T13:20:12;98665.03;;;5.26;100.00
38939;BME280;24211;49.980;19.776;2023-12-20T13:25:59;98686.03;;;5.21;100.00
38939;BME280;24211;49.980;19.776;2023-12-20T13:28:28;98680.72;;;5.21;100.00
38939;BME280;24211;49.980;19.776;2023-12-20T13:30:55;98687.25;;;5.19;100.00
38939;BME280;24211;49.980;19.776;2023-12-20T13:33:22;98684.81;;;5.17;100.00
38939;BME280;24211;49.980;19.776;2023-12-20T13:36:19;98682.16;;;5.17;100.00
38939;BME280;24211;49.980;19.776;2023-12-20T13:42:06;98680.72;;;5.21;100.00
38939;BME280;24211;49.980;19.776;2023-12-20T13:44:33;98686.44;;;5.18;100.00
38939;BME280;24211;49.980;19.776;2023-12-20T13:47:04;98690.94;;;5.18;100.00
38939;BME280;24211;49.980;19.776;2023-12-20T13:49:58;98690.13;;;5.17;100.00
38939;BME280;24211;49.980;19.776;2023-12-20T13:52:51;98682.16;;;5.17;100.00
38939;BME280;24211;49.980;19.776;2023-12-20T13:55:18;98690.94;;;5.18;100.00
38939;BME280;24211;49.980;19.776;2023-12-20T13:57:49;98676.66;;;5.19;100.00
38939;BME280;24211;49.980;19.776;2023-12-20T14:00:25;98686.44;;;5.18;100.00
38939;BME280;24211;49.980;19.776;2023-12-20T14:02:52;98685.22;;;5.14;100.00
38939;BME280;24211;49.980;19.776;2023-12-20T14:05:19;98674.25;;;5.11;100.00
38939;BME280;24211;49.980;19.776;2023-12-20T14:08:33;98675.03;;;5.11;100.00
38939;BME280;24211;49.980;19.776;2023-12-20T14:11:02;98676.66;;;5.12;100.00
38939;BME280;24211;49.980;19.776;2023-12-20T14:16:48;98671.97;;;5.14;100.00
38939;BME280;24211;49.980;19.776;2023-12-20T14:19:15;98673.41;;;5.17;100.00
38939;BME280;24211;49.980;19.776;2023-12-20T14:22:08;98665.25;;;5.18;100.00
38939;BME280;24211;49.980;19.776;2023-12-20T14:24:36;98658.13;;;5.19;100.00
38939;BME280;24211;49.980;19.776;2023-12-20T14:27:29;98653.03;;;5.17;100.00
38939;BME280;24211;49.980;19.776;2023-12-20T14:29:57;98653.03;;;5.17;100.00
38939;BME280;24211;49.980;19.776;2023-12-20T14:32:24;98656.69;;;5.16;100.00
38939;BME280;24211;49.980;19.776;2023-12-20T14:34:57;98658.94;;;5.13;100.00
38939;BME280;24211;49.980;19.776;2023-12-20T14:37:24;98668.13;;;5.10;100.00
38939;BME280;24211;49.980;19.776;2023-12-20T14:40:40;98676.69;;;5.06;100.00
38939;BME280;24211;49.980;19.776;2023-12-20T14:43:08;98679.91;;;5.01;100.00
38939;BME280;24211;49.980;19.776;2023-12-20T14:45:35;98673.41;;;4.97;100.00
38939;BME280;24211;49.980;19.776;2023-12-20T14:48:02;98670.56;;;4.92;100.00
38939;BME280;24211;49.980;19.776;2023-12-20T14:50:30;98653.06;;;4.91;100.00
38939;BME280;24211;49.980;19.776;2023-12-20T14:52:57;98666.91;;;4.93;100.00
38939;BME280;24211;49.980;19.776;2023-12-20T14:55:24;98660.38;;;4.89;100.00
38939;BME280;24211;49.980;19.776;2023-12-20T14:57:53;98653.28;;;4.83;100.00
38939;BME280;24211;49.980;19.776;2023-12-20T15:00:24;98664.88;;;4.82;100.00
38939;BME280;24211;49.980;19.776;2023-12-20T15:02:51;98667.72;;;4.81;100.00